Flight Track Log - Related Links

Times and Time Zones

All times are in EDT time to prevent confusion due to time zone crossing. See the N6400T flight status page for this flight to view local times or setup timezone preferences in your user account.

Time Position Orientation Groundspeed Altitude Reporting Facility
EDT Latitude Longitude Course Direction KTS MPH feet Rate Location/Type
Fri 05:05:38 PM 38.9667 -76.9000 322° Northwest 49 56 9,800  Level Potomac TRACON
Fri 05:06:38 PM 38.9833 -76.9167 322° Northwest 82 94 1,000 -4,016 Descending Potomac TRACON
Fri 05:07:45 PM 39.0000 -76.9333 322° Northwest 98 113 1,300 298 Climbing Potomac TRACON
Fri 05:08:39 PM 39.0333 -76.9500 339° North 101 116 1,600 300 Climbing Potomac TRACON
Fri 05:09:45 PM 39.0500 -76.9833 303° West 92 106 1,900 286 Climbing Potomac TRACON
Fri 05:10:45 PM 39.0667 -77.0000 322° Northwest 99 114 2,200 105 Climbing Potomac TRACON
Fri 05:11:39 PM 39.0833 -77.0167 322° Northwest 99 114 2,100 50 Descending Potomac TRACON
Fri 05:12:46 PM 39.1167 -77.0500 322° Northwest 99 114 2,300 189 Climbing Potomac TRACON
Fri 05:13:46 PM 39.1333 -77.0667 322° Northwest 98 113 2,500 50 Climbing Potomac TRACON
Fri 05:14:46 PM 39.1500 -77.0833 322° Northwest 96 110 2,400 99 Descending Potomac TRACON
Fri 05:15:47 PM 39.1667 -77.1167 303° West 98 113 2,700 198 Climbing Potomac TRACON
Fri 05:16:47 PM 39.2000 -77.1333 339° North 102 117 2,800 105 Climbing Potomac TRACON
Fri 05:17:41 PM 39.2167 -77.1667 303° West 97 112 2,900 211 Climbing Potomac TRACON
Fri 05:18:41 PM 39.2333 -77.1833 321° Northwest 99 114 3,200 100 Climbing Potomac TRACON
Fri 05:19:41 PM 39.2500 -77.2000 322° Northwest 105 121 3,100 -47 Descending Potomac TRACON
Fri 05:20:48 PM 39.2667 -77.2333 303° West 99 114 3,100 48 Level Potomac TRACON
Fri 05:21:47 PM 39.3000 -77.2500 339° North 98 113 3,200  Climbing Potomac TRACON
Fri 05:22:42 PM 39.3167 -77.2833 303° West 99 114 3,100 99 Descending Potomac TRACON
Fri 05:23:48 PM 39.3333 -77.3000 322° Northwest 91 105 3,400 238 Climbing Potomac TRACON
Fri 05:24:48 PM 39.3500 -77.3333 303° West 97 112 3,600 200 Climbing Potomac TRACON
Fri 05:26:00 PM 39.3315 -77.3681 236° Southwest  Level FlightAware Approximate
Fri 05:33:00 PM 39.2167 -77.5833 270° West  Level FlightAware Approximate
Fri 05:34:00 PM 39.2167 -77.5833 270° West  Level FlightAware Approximate
Fri 05:35:00 PM 39.2167 -77.5833 270° West  Level FlightAware Approximate
Fri 05:36:00 PM 39.2167 -77.5833 270° West  Level FlightAware Approximate
Fri 05:37:00 PM 39.2167 -77.5833 270° West  Level FlightAware Approximate
Fri 05:38:00 PM 39.2167 -77.5833 270° West  Level FlightAware Approximate
Fri 05:39:00 PM 39.2167 -77.5833 270° West  Level FlightAware Approximate
Fri 05:40:00 PM 39.2167 -77.5833 270° West  Level FlightAware Approximate
Fri 05:41:00 PM 39.2167 -77.5833 270° West  Level FlightAware Approximate
Fri 05:42:00 PM 39.2167 -77.5833 270° West  Level FlightAware Approximate
Fri 05:43:00 PM 39.2167 -77.5833 270° West  Level FlightAware Approximate
Fri 05:44:00 PM 39.2167 -77.5833 270° West  Level FlightAware Approximate
Fri 05:45:00 PM 39.2167 -77.5833 270° West  Level FlightAware Approximate

Login

Don't have an account? Register now (free) for customized features, flight alerts, and more!